sensor_id;sensor_type;location;lat;lon;timestamp;P1;durP1;ratioP1;P2;durP2;ratioP2
28774;SDS011;15926;51.348;6.596;2023-10-19T04:04:12;15.18;;;11.00;;
28774;SDS011;15926;51.348;6.596;2023-10-19T04:06:39;18.83;;;11.38;;
28774;SDS011;15926;51.348;6.596;2023-10-19T04:09:05;16.77;;;11.45;;
28774;SDS011;15926;51.348;6.596;2023-10-19T04:11:31;22.02;;;12.18;;
28774;SDS011;15926;51.348;6.596;2023-10-19T04:14:01;17.35;;;11.07;;
28774;SDS011;15926;51.348;6.596;2023-10-19T04:16:28;17.20;;;11.48;;
28774;SDS011;15926;51.348;6.596;2023-10-19T04:18:54;17.27;;;11.27;;
28774;SDS011;15926;51.348;6.596;2023-10-19T04:21:20;17.05;;;10.73;;
28774;SDS011;15926;51.348;6.596;2023-10-19T04:23:46;16.17;;;11.80;;
28774;SDS011;15926;51.348;6.596;2023-10-19T04:26:12;17.00;;;11.65;;
28774;SDS011;15926;51.348;6.596;2023-10-19T04:28:40;18.20;;;11.88;;
28774;SDS011;15926;51.348;6.596;2023-10-19T04:31:10;15.25;;;10.65;;
28774;SDS011;15926;51.348;6.596;2023-10-19T04:33:39;20.65;;;13.15;;
28774;SDS011;15926;51.348;6.596;2023-10-19T04:36:07;20.05;;;12.25;;
28774;SDS011;15926;51.348;6.596;2023-10-19T04:38:36;21.42;;;12.57;;
28774;SDS011;15926;51.348;6.596;2023-10-19T04:41:05;20.00;;;12.70;;
28774;SDS011;15926;51.348;6.596;2023-10-19T04:43:32;20.05;;;13.93;;
28774;SDS011;15926;51.348;6.596;2023-10-19T04:45:59;22.90;;;14.45;;
28774;SDS011;15926;51.348;6.596;2023-10-19T04:48:26;24.70;;;14.15;;
28774;SDS011;15926;51.348;6.596;2023-10-19T04:50:52;22.73;;;14.05;;
28774;SDS011;15926;51.348;6.596;2023-10-19T04:53:18;24.70;;;14.77;;
28774;SDS011;15926;51.348;6.596;2023-10-19T04:55:45;23.02;;;14.35;;
28774;SDS011;15926;51.348;6.596;2023-10-19T04:58:11;24.75;;;13.60;;
28774;SDS011;15926;51.348;6.596;2023-10-19T05:00:37;24.00;;;13.48;;
28774;SDS011;15926;51.348;6.596;2023-10-19T05:03:03;21.80;;;15.07;;
28774;SDS011;15926;51.348;6.596;2023-10-19T05:05:29;20.52;;;13.75;;
28774;SDS011;15926;51.348;6.596;2023-10-19T05:07:55;22.70;;;13.70;;
28774;SDS011;15926;51.348;6.596;2023-10-19T05:10:21;21.58;;;12.63;;
28774;SDS011;15926;51.348;6.596;2023-10-19T05:12:47;16.33;;;12.23;;
28774;SDS011;15926;51.348;6.596;2023-10-19T05:15:13;22.15;;;12.95;;
28774;SDS011;15926;51.348;6.596;2023-10-19T05:17:40;22.25;;;12.98;;
28774;SDS011;15926;51.348;6.596;2023-10-19T05:20:07;21.77;;;12.27;;
28774;SDS011;15926;51.348;6.596;2023-10-19T05:22:33;18.90;;;12.70;;
28774;SDS011;15926;51.348;6.596;2023-10-19T05:24:59;22.02;;;13.00;;
28774;SDS011;15926;51.348;6.596;2023-10-19T05:27:26;17.85;;;12.38;;
28774;SDS011;15926;51.348;6.596;2023-10-19T05:29:52;16.13;;;11.60;;
28774;SDS011;15926;51.348;6.596;2023-10-19T05:32:18;17.67;;;12.00;;
28774;SDS011;15926;51.348;6.596;2023-10-19T05:34:44;17.33;;;11.13;;
28774;SDS011;15926;51.348;6.596;2023-10-19T05:37:09;16.42;;;10.73;;
28774;SDS011;15926;51.348;6.596;2023-10-19T05:39:36;16.33;;;11.68;;
28774;SDS011;15926;51.348;6.596;2023-10-19T05:42:02;16.65;;;11.05;;
28774;SDS011;15926;51.348;6.596;2023-10-19T05:44:29;15.88;;;10.40;;
28774;SDS011;15926;51.348;6.596;2023-10-19T05:46:55;14.13;;;10.52;;
28774;SDS011;15926;51.348;6.596;2023-10-19T05:49:21;14.30;;;10.57;;
28774;SDS011;15926;51.348;6.596;2023-10-19T05:51:49;14.15;;;10.15;;
28774;SDS011;15926;51.348;6.596;2023-10-19T05:54:15;14.40;;;10.50;;
28774;SDS011;15926;51.348;6.596;2023-10-19T05:56:42;18.15;;;11.82;;
28774;SDS011;15926;51.348;6.596;2023-10-19T05:59:08;14.10;;;10.63;;
28774;SDS011;15926;51.348;6.596;2023-10-19T06:01:35;16.48;;;11.07;;
28774;SDS011;15926;51.348;6.596;2023-10-19T06:04:04;16.13;;;10.80;;
28774;SDS011;15926;51.348;6.596;2023-10-19T06:06:30;17.48;;;11.13;;
28774;SDS011;15926;51.348;6.596;2023-10-19T06:08:56;13.52;;;10.75;;
28774;SDS011;15926;51.348;6.596;2023-10-19T06:11:23;13.32;;;10.25;;
28774;SDS011;15926;51.348;6.596;2023-10-19T06:13:49;18.60;;;11.63;;
28774;SDS011;15926;51.348;6.596;2023-10-19T06:16:15;14.70;;;10.50;;
28774;SDS011;15926;51.348;6.596;2023-10-19T06:18:41;16.50;;;10.98;;
28774;SDS011;15926;51.348;6.596;2023-10-19T06:21:08;15.05;;;9.98;;
28774;SDS011;15926;51.348;6.596;2023-10-19T06:23:35;13.13;;;10.43;;
28774;SDS011;15926;51.348;6.596;2023-10-19T06:26:08;13.48;;;10.05;;
28774;SDS011;15926;51.348;6.596;2023-10-19T06:28:36;13.40;;;10.38;;
28774;SDS011;15926;51.348;6.596;2023-10-19T06:31:04;14.30;;;10.75;;
28774;SDS011;15926;51.348;6.596;2023-10-19T06:33:30;12.00;;;9.43;;
28774;SDS011;15926;51.348;6.596;2023-10-19T06:35:58;13.88;;;10.35;;
28774;SDS011;15926;51.348;6.596;2023-10-19T06:38:24;16.13;;;10.60;;
28774;SDS011;15926;51.348;6.596;2023-10-19T06:40:51;14.38;;;10.23;;
28774;SDS011;15926;51.348;6.596;2023-10-19T06:43:17;14.75;;;10.55;;
28774;SDS011;15926;51.348;6.596;2023-10-19T06:45:46;13.63;;;9.95;;
28774;SDS011;15926;51.348;6.596;2023-10-19T06:48:12;15.55;;;10.30;;
28774;SDS011;15926;51.348;6.596;2023-10-19T06:50:38;16.35;;;10.73;;
28774;SDS011;15926;51.348;6.596;2023-10-19T06:53:04;14.55;;;9.50;;
28774;SDS011;15926;51.348;6.596;2023-10-19T06:55:30;13.07;;;10.07;;
28774;SDS011;15926;51.348;6.596;2023-10-19T06:57:56;16.38;;;10.20;;
28774;SDS011;15926;51.348;6.596;2023-10-19T07:00:24;14.52;;;9.85;;
28774;SDS011;15926;51.348;6.596;2023-10-19T07:02:53;15.45;;;10.38;;
28774;SDS011;15926;51.348;6.596;2023-10-19T07:05:20;13.82;;;9.43;;
28774;SDS011;15926;51.348;6.596;2023-10-19T07:07:51;15.13;;;8.77;;
28774;SDS011;15926;51.348;6.596;2023-10-19T07:10:19;12.73;;;9.90;;
28774;SDS011;15926;51.348;6.596;2023-10-19T07:12:46;15.65;;;9.43;;
28774;SDS011;15926;51.348;6.596;2023-10-19T07:15:12;12.85;;;9.75;;
28774;SDS011;15926;51.348;6.596;2023-10-19T07:17:44;13.93;;;9.45;;
28774;SDS011;15926;51.348;6.596;2023-10-19T07:20:11;11.60;;;9.15;;
28774;SDS011;15926;51.348;6.596;2023-10-19T07:22:56;12.52;;;8.70;;
28774;SDS011;15926;51.348;6.596;2023-10-19T07:25:25;14.20;;;8.55;;
28774;SDS011;15926;51.348;6.596;2023-10-19T07:27:54;13.73;;;8.23;;
28774;SDS011;15926;51.348;6.596;2023-10-19T07:30:20;12.00;;;8.85;;
28774;SDS011;15926;51.348;6.596;2023-10-19T07:32:50;13.48;;;9.07;;
28774;SDS011;15926;51.348;6.596;2023-10-19T07:35:19;15.05;;;8.05;;
28774;SDS011;15926;51.348;6.596;2023-10-19T07:37:45;10.20;;;8.30;;
28774;SDS011;15926;51.348;6.596;2023-10-19T07:40:13;12.05;;;8.15;;
28774;SDS011;15926;51.348;6.596;2023-10-19T07:42:40;14.27;;;8.60;;
28774;SDS011;15926;51.348;6.596;2023-10-19T07:45:07;11.25;;;8.18;;
28774;SDS011;15926;51.348;6.596;2023-10-19T07:47:37;10.45;;;8.23;;
28774;SDS011;15926;51.348;6.596;2023-10-19T07:50:05;16.48;;;9.38;;
28774;SDS011;15926;51.348;6.596;2023-10-19T07:52:36;13.23;;;8.43;;
28774;SDS011;15926;51.348;6.596;2023-10-19T07:55:02;12.60;;;7.93;;
28774;SDS011;15926;51.348;6.596;2023-10-19T07:57:28;10.50;;;7.45;;
28774;SDS011;15926;51.348;6.596;2023-10-19T07:59:54;10.57;;;8.07;;
28774;SDS011;15926;51.348;6.596;2023-10-19T08:02:21;13.30;;;7.65;;
28774;SDS011;15926;51.348;6.596;2023-10-19T08:04:49;13.63;;;7.60;;
28774;SDS011;15926;51.348;6.596;2023-10-19T08:07:16;9.35;;;7.15;;
28774;SDS011;15926;51.348;6.596;2023-10-19T08:09:42;10.38;;;7.07;;
28774;SDS011;15926;51.348;6.596;2023-10-19T08:12:09;10.13;;;7.00;;
28774;SDS011;15926;51.348;6.596;2023-10-19T08:14:38;7.45;;;6.35;;
28774;SDS011;15926;51.348;6.596;2023-10-19T08:17:04;7.38;;;6.30;;
28774;SDS011;15926;51.348;6.596;2023-10-19T08:19:33;16.77;;;6.45;;
28774;SDS011;15926;51.348;6.596;2023-10-19T08:22:00;7.63;;;5.80;;
28774;SDS011;15926;51.348;6.596;2023-10-19T08:24:27;11.05;;;5.68;;
28774;SDS011;15926;51.348;6.596;2023-10-19T08:26:55;8.48;;;5.95;;
28774;SDS011;15926;51.348;6.596;2023-10-19T08:29:21;7.25;;;5.68;;
28774;SDS011;15926;51.348;6.596;2023-10-19T08:31:49;8.73;;;6.05;;
28774;SDS011;15926;51.348;6.596;2023-10-19T08:34:15;7.57;;;5.57;;
28774;SDS011;15926;51.348;6.596;2023-10-19T08:36:42;12.18;;;5.32;;
28774;SDS011;15926;51.348;6.596;2023-10-19T08:39:08;5.88;;;5.30;;
28774;SDS011;15926;51.348;6.596;2023-10-19T08:41:37;7.25;;;4.72;;
28774;SDS011;15926;51.348;6.596;2023-10-19T08:44:06;5.88;;;5.32;;
28774;SDS011;15926;51.348;6.596;2023-10-19T08:46:40;10.00;;;6.30;;
28774;SDS011;15926;51.348;6.596;2023-10-19T08:49:14;13.88;;;6.65;;
28774;SDS011;15926;51.348;6.596;2023-10-19T08:51:44;11.52;;;6.50;;
28774;SDS011;15926;51.348;6.596;2023-10-19T08:54:13;8.25;;;5.95;;
28774;SDS011;15926;51.348;6.596;2023-10-19T08:56:42;7.63;;;6.07;;
28774;SDS011;15926;51.348;6.596;2023-10-19T08:59:09;8.02;;;5.38;;
28774;SDS011;15926;51.348;6.596;2023-10-19T09:01:36;8.27;;;5.53;;
28774;SDS011;15926;51.348;6.596;2023-10-19T09:04:02;6.28;;;5.15;;
28774;SDS011;15926;51.348;6.596;2023-10-19T09:06:30;5.73;;;4.57;;
28774;SDS011;15926;51.348;6.596;2023-10-19T09:08:57;7.88;;;4.72;;
28774;SDS011;15926;51.348;6.596;2023-10-19T09:11:23;8.40;;;4.70;;
28774;SDS011;15926;51.348;6.596;2023-10-19T09:13:53;9.60;;;5.50;;
28774;SDS011;15926;51.348;6.596;2023-10-19T09:16:20;6.63;;;4.53;;
28774;SDS011;15926;51.348;6.596;2023-10-19T09:18:47;8.18;;;4.45;;
28774;SDS011;15926;51.348;6.596;2023-10-19T09:21:17;5.07;;;4.18;;
28774;SDS011;15926;51.348;6.596;2023-10-19T09:23:49;5.22;;;3.53;;
28774;SDS011;15926;51.348;6.596;2023-10-19T09:26:16;6.43;;;3.22;;
28774;SDS011;15926;51.348;6.596;2023-10-19T09:28:45;8.73;;;3.50;;
28774;SDS011;15926;51.348;6.596;2023-10-19T09:31:13;4.18;;;3.13;;
28774;SDS011;15926;51.348;6.596;2023-10-19T09:33:41;6.20;;;3.03;;
28774;SDS011;15926;51.348;6.596;2023-10-19T09:36:08;5.95;;;2.80;;
28774;SDS011;15926;51.348;6.596;2023-10-19T09:38:47;3.97;;;2.30;;
28774;SDS011;15926;51.348;6.596;2023-10-19T09:41:14;4.28;;;2.15;;
28774;SDS011;15926;51.348;6.596;2023-10-19T09:43:41;4.25;;;2.50;;
28774;SDS011;15926;51.348;6.596;2023-10-19T09:46:09;8.63;;;2.53;;
28774;SDS011;15926;51.348;6.596;2023-10-19T09:48:40;4.32;;;2.15;;
28774;SDS011;15926;51.348;6.596;2023-10-19T09:51:10;4.22;;;2.15;;
28774;SDS011;15926;51.348;6.596;2023-10-19T09:53:37;6.40;;;2.20;;
28774;SDS011;15926;51.348;6.596;2023-10-19T09:56:05;4.57;;;2.42;;
28774;SDS011;15926;51.348;6.596;2023-10-19T09:58:35;6.53;;;1.73;;
28774;SDS011;15926;51.348;6.596;2023-10-19T10:01:05;7.50;;;2.17;;
28774;SDS011;15926;51.348;6.596;2023-10-19T10:03:53;6.20;;;1.85;;
28774;SDS011;15926;51.348;6.596;2023-10-19T10:06:29;7.78;;;1.92;;
28774;SDS011;15926;51.348;6.596;2023-10-19T10:08:55;5.43;;;1.48;;
28774;SDS011;15926;51.348;6.596;2023-10-19T10:11:22;10.00;;;2.38;;
28774;SDS011;15926;51.348;6.596;2023-10-19T10:13:49;9.57;;;2.38;;
28774;SDS011;15926;51.348;6.596;2023-10-19T10:16:28;3.30;;;1.42;;
28774;SDS011;15926;51.348;6.596;2023-10-19T10:18:55;4.43;;;1.20;;
28774;SDS011;15926;51.348;6.596;2023-10-19T10:21:24;5.10;;;1.80;;
28774;SDS011;15926;51.348;6.596;2023-10-19T10:23:53;4.28;;;1.63;;
28774;SDS011;15926;51.348;6.596;2023-10-19T10:26:21;5.38;;;2.03;;
28774;SDS011;15926;51.348;6.596;2023-10-19T10:29:10;5.88;;;1.80;;
28774;SDS011;15926;51.348;6.596;2023-10-19T10:31:46;5.00;;;1.65;;
28774;SDS011;15926;51.348;6.596;2023-10-19T10:36:58;2.75;;;1.25;;
28774;SDS011;15926;51.348;6.596;2023-10-19T10:39:33;4.97;;;1.58;;
28774;SDS011;15926;51.348;6.596;2023-10-19T10:42:05;4.65;;;1.98;;
28774;SDS011;15926;51.348;6.596;2023-10-19T10:44:38;2.75;;;1.60;;
28774;SDS011;15926;51.348;6.596;2023-10-19T10:47:09;6.30;;;1.88;;
28774;SDS011;15926;51.348;6.596;2023-10-19T10:49:54;4.53;;;1.92;;
28774;SDS011;15926;51.348;6.596;2023-10-19T10:52:30;4.28;;;1.40;;
28774;SDS011;15926;51.348;6.596;2023-10-19T10:54:57;4.57;;;1.08;;
28774;SDS011;15926;51.348;6.596;2023-10-19T10:57:23;6.18;;;1.27;;
28774;SDS011;15926;51.348;6.596;2023-10-19T11:02:29;3.13;;;1.17;;
28774;SDS011;15926;51.348;6.596;2023-10-19T11:04:55;9.60;;;1.67;;
28774;SDS011;15926;51.348;6.596;2023-10-19T11:07:21;7.10;;;2.05;;
28774;SDS011;15926;51.348;6.596;2023-10-19T11:09:47;4.93;;;1.80;;
28774;SDS011;15926;51.348;6.596;2023-10-19T11:12:14;3.88;;;1.83;;
28774;SDS011;15926;51.348;6.596;2023-10-19T11:17:18;7.27;;;1.33;;
28774;SDS011;15926;51.348;6.596;2023-10-19T11:19:48;6.30;;;1.38;;
28774;SDS011;15926;51.348;6.596;2023-10-19T11:22:14;6.55;;;1.23;;
28774;SDS011;15926;51.348;6.596;2023-10-19T11:24:40;4.72;;;1.27;;
28774;SDS011;15926;51.348;6.596;2023-10-19T11:27:06;6.13;;;1.42;;
28774;SDS011;15926;51.348;6.596;2023-10-19T11:29:33;4.15;;;1.50;;
28774;SDS011;15926;51.348;6.596;2023-10-19T11:31:59;8.75;;;1.70;;
28774;SDS011;15926;51.348;6.596;2023-10-19T11:34:27;5.13;;;2.25;;
28774;SDS011;15926;51.348;6.596;2023-10-19T11:36:54;7.13;;;1.58;;
28774;SDS011;15926;51.348;6.596;2023-10-19T11:39:24;5.75;;;2.22;;
28774;SDS011;15926;51.348;6.596;2023-10-19T11:41:50;3.67;;;1.50;;
28774;SDS011;15926;51.348;6.596;2023-10-19T11:44:18;12.90;;;1.70;;
28774;SDS011;15926;51.348;6.596;2023-10-19T11:46:44;6.32;;;1.45;;
28774;SDS011;15926;51.348;6.596;2023-10-19T11:49:10;3.50;;;1.60;;
28774;SDS011;15926;51.348;6.596;2023-10-19T11:51:37;3.25;;;1.20;;
28774;SDS011;15926;51.348;6.596;2023-10-19T11:54:06;6.53;;;1.38;;
28774;SDS011;15926;51.348;6.596;2023-10-19T11:58:58;8.23;;;1.55;;
28774;SDS011;15926;51.348;6.596;2023-10-19T12:01:24;9.02;;;1.45;;
28774;SDS011;15926;51.348;6.596;2023-10-19T12:03:51;5.72;;;1.48;;
28774;SDS011;15926;51.348;6.596;2023-10-19T12:06:17;4.47;;;1.60;;
28774;SDS011;15926;51.348;6.596;2023-10-19T12:08:44;2.45;;;1.30;;
28774;SDS011;15926;51.348;6.596;2023-10-19T12:11:10;6.97;;;1.73;;
28774;SDS011;15926;51.348;6.596;2023-10-19T12:13:43;4.47;;;1.20;;
28774;SDS011;15926;51.348;6.596;2023-10-19T12:16:10;4.95;;;1.40;;
28774;SDS011;15926;51.348;6.596;2023-10-19T12:18:38;4.20;;;1.73;;
28774;SDS011;15926;51.348;6.596;2023-10-19T12:21:04;3.63;;;1.42;;
28774;SDS011;15926;51.348;6.596;2023-10-19T12:23:33;3.25;;;2.17;;
28774;SDS011;15926;51.348;6.596;2023-10-19T12:26:00;7.40;;;1.05;;
28774;SDS011;15926;51.348;6.596;2023-10-19T12:30:55;7.38;;;1.17;;
28774;SDS011;15926;51.348;6.596;2023-10-19T12:33:21;5.38;;;1.25;;
28774;SDS011;15926;51.348;6.596;2023-10-19T12:35:47;5.47;;;1.58;;
28774;SDS011;15926;51.348;6.596;2023-10-19T12:38:16;2.92;;;1.17;;
28774;SDS011;15926;51.348;6.596;2023-10-19T12:40:46;5.00;;;1.40;;
28774;SDS011;15926;51.348;6.596;2023-10-19T12:43:13;5.40;;;1.65;;
28774;SDS011;15926;51.348;6.596;2023-10-19T12:45:40;6.60;;;1.40;;
28774;SDS011;15926;51.348;6.596;2023-10-19T12:48:06;1.88;;;1.35;;
28774;SDS011;15926;51.348;6.596;2023-10-19T12:50:36;8.05;;;1.73;;
28774;SDS011;15926;51.348;6.596;2023-10-19T12:53:02;3.20;;;1.40;;
28774;SDS011;15926;51.348;6.596;2023-10-19T12:55:29;3.25;;;1.20;;
28774;SDS011;15926;51.348;6.596;2023-10-19T12:57:56;5.10;;;1.17;;
28774;SDS011;15926;51.348;6.596;2023-10-19T13:00:23;8.13;;;1.50;;
28774;SDS011;15926;51.348;6.596;2023-10-19T13:02:50;2.33;;;0.93;;
28774;SDS011;15926;51.348;6.596;2023-10-19T13:05:16;5.63;;;1.35;;
28774;SDS011;15926;51.348;6.596;2023-10-19T13:07:46;4.07;;;1.30;;
28774;SDS011;15926;51.348;6.596;2023-10-19T13:10:12;4.93;;;1.60;;
28774;SDS011;15926;51.348;6.596;2023-10-19T13:12:38;5.85;;;1.75;;
28774;SDS011;15926;51.348;6.596;2023-10-19T13:15:04;4.97;;;1.20;;
28774;SDS011;15926;51.348;6.596;2023-10-19T13:17:37;6.40;;;1.42;;
28774;SDS011;15926;51.348;6.596;2023-10-19T13:20:04;4.55;;;1.48;;
28774;SDS011;15926;51.348;6.596;2023-10-19T13:22:41;6.53;;;1.98;;
28774;SDS011;15926;51.348;6.596;2023-10-19T13:25:07;8.27;;;1.50;;
28774;SDS011;15926;51.348;6.596;2023-10-19T13:27:34;8.07;;;1.70;;
28774;SDS011;15926;51.348;6.596;2023-10-19T13:30:00;4.43;;;1.50;;
28774;SDS011;15926;51.348;6.596;2023-10-19T13:32:30;6.68;;;1.85;;
28774;SDS011;15926;51.348;6.596;2023-10-19T13:34:57;5.07;;;1.63;;
28774;SDS011;15926;51.348;6.596;2023-10-19T13:37:23;6.70;;;1.80;;
28774;SDS011;15926;51.348;6.596;2023-10-19T13:39:49;8.60;;;1.70;;
28774;SDS011;15926;51.348;6.596;2023-10-19T13:42:15;8.32;;;2.40;;
28774;SDS011;15926;51.348;6.596;2023-10-19T13:44:42;4.22;;;1.83;;
28774;SDS011;15926;51.348;6.596;2023-10-19T13:47:08;4.18;;;1.60;;
28774;SDS011;15926;51.348;6.596;2023-10-19T13:49:36;5.27;;;2.00;;
28774;SDS011;15926;51.348;6.596;2023-10-19T13:52:02;6.75;;;2.00;;
28774;SDS011;15926;51.348;6.596;2023-10-19T13:54:29;5.75;;;1.67;;
28774;SDS011;15926;51.348;6.596;2023-10-19T13:56:55;8.38;;;2.13;;
28774;SDS011;15926;51.348;6.596;2023-10-19T13:59:21;4.05;;;1.83;;
28774;SDS011;15926;51.348;6.596;2023-10-19T14:01:48;4.63;;;1.50;;
28774;SDS011;15926;51.348;6.596;2023-10-19T14:04:15;7.80;;;2.20;;
28774;SDS011;15926;51.348;6.596;2023-10-19T14:06:41;4.53;;;1.40;;
28774;SDS011;15926;51.348;6.596;2023-10-19T14:09:08;8.00;;;1.52;;
28774;SDS011;15926;51.348;6.596;2023-10-19T14:11:37;5.43;;;1.50;;
28774;SDS011;15926;51.348;6.596;2023-10-19T14:14:04;4.07;;;1.60;;
28774;SDS011;15926;51.348;6.596;2023-10-19T14:16:30;4.82;;;1.48;;
28774;SDS011;15926;51.348;6.596;2023-10-19T14:18:56;4.97;;;1.73;;
28774;SDS011;15926;51.348;6.596;2023-10-19T14:21:22;4.88;;;1.55;;
28774;SDS011;15926;51.348;6.596;2023-10-19T14:23:53;6.95;;;1.50;;
28774;SDS011;15926;51.348;6.596;2023-10-19T14:26:19;6.65;;;2.10;;
28774;SDS011;15926;51.348;6.596;2023-10-19T14:28:45;5.22;;;2.13;;
28774;SDS011;15926;51.348;6.596;2023-10-19T14:31:11;6.78;;;2.13;;
28774;SDS011;15926;51.348;6.596;2023-10-19T14:33:38;9.38;;;1.88;;
28774;SDS011;15926;51.348;6.596;2023-10-19T14:36:04;6.47;;;2.47;;
28774;SDS011;15926;51.348;6.596;2023-10-19T14:38:30;7.03;;;1.60;;
28774;SDS011;15926;51.348;6.596;2023-10-19T14:40:56;10.75;;;2.22;;
28774;SDS011;15926;51.348;6.596;2023-10-19T14:43:23;6.85;;;1.77;;
28774;SDS011;15926;51.348;6.596;2023-10-19T14:45:50;6.38;;;1.67;;
28774;SDS011;15926;51.348;6.596;2023-10-19T14:48:16;4.50;;;1.85;;
28774;SDS011;15926;51.348;6.596;2023-10-19T14:50:44;5.22;;;1.73;;
28774;SDS011;15926;51.348;6.596;2023-10-19T14:53:12;5.35;;;1.70;;
28774;SDS011;15926;51.348;6.596;2023-10-19T14:55:38;3.88;;;1.45;;
28774;SDS011;15926;51.348;6.596;2023-10-19T14:58:04;4.70;;;1.88;;
28774;SDS011;15926;51.348;6.596;2023-10-19T15:00:31;3.22;;;1.90;;
28774;SDS011;15926;51.348;6.596;2023-10-19T15:03:02;6.95;;;1.77;;
28774;SDS011;15926;51.348;6.596;2023-10-19T15:05:35;6.95;;;1.50;;
28774;SDS011;15926;51.348;6.596;2023-10-19T15:08:01;4.57;;;1.60;;
28774;SDS011;15926;51.348;6.596;2023-10-19T15:10:29;4.30;;;1.60;;
28774;SDS011;15926;51.348;6.596;2023-10-19T15:12:56;5.80;;;1.50;;
28774;SDS011;15926;51.348;6.596;2023-10-19T15:15:26;6.22;;;1.48;;
28774;SDS011;15926;51.348;6.596;2023-10-19T15:17:52;9.00;;;1.77;;
28774;SDS011;15926;51.348;6.596;2023-10-19T15:20:19;6.00;;;1.60;;
28774;SDS011;15926;51.348;6.596;2023-10-19T15:22:45;5.20;;;1.83;;
28774;SDS011;15926;51.348;6.596;2023-10-19T15:25:12;3.80;;;1.75;;
28774;SDS011;15926;51.348;6.596;2023-10-19T15:27:39;5.55;;;1.85;;
28774;SDS011;15926;51.348;6.596;2023-10-19T15:30:06;9.50;;;1.83;;
28774;SDS011;15926;51.348;6.596;2023-10-19T15:32:33;3.53;;;1.42;;
28774;SDS011;15926;51.348;6.596;2023-10-19T15:34:59;5.60;;;1.60;;
28774;SDS011;15926;51.348;6.596;2023-10-19T15:37:26;5.18;;;1.60;;
28774;SDS011;15926;51.348;6.596;2023-10-19T15:39:52;5.05;;;1.67;;
28774;SDS011;15926;51.348;6.596;2023-10-19T15:42:18;4.65;;;1.52;;
28774;SDS011;15926;51.348;6.596;2023-10-19T15:44:46;9.97;;;1.77;;
28774;SDS011;15926;51.348;6.596;2023-10-19T15:47:12;5.78;;;1.83;;
28774;SDS011;15926;51.348;6.596;2023-10-19T15:49:46;5.85;;;1.33;;
28774;SDS011;15926;51.348;6.596;2023-10-19T15:52:18;8.57;;;1.83;;
28774;SDS011;15926;51.348;6.596;2023-10-19T15:54:47;5.63;;;1.92;;
28774;SDS011;15926;51.348;6.596;2023-10-19T15:57:13;4.90;;;1.80;;
28774;SDS011;15926;51.348;6.596;2023-10-19T15:59:40;5.60;;;1.98;;
28774;SDS011;15926;51.348;6.596;2023-10-19T16:02:07;5.45;;;2.03;;
28774;SDS011;15926;51.348;6.596;2023-10-19T16:04:33;8.05;;;2.60;;
28774;SDS011;15926;51.348;6.596;2023-10-19T16:06:59;4.63;;;1.70;;
28774;SDS011;15926;51.348;6.596;2023-10-19T16:09:25;4.40;;;2.10;;
28774;SDS011;15926;51.348;6.596;2023-10-19T16:11:51;6.35;;;1.95;;
28774;SDS011;15926;51.348;6.596;2023-10-19T16:14:17;7.07;;;2.25;;
28774;SDS011;15926;51.348;6.596;2023-10-19T16:16:44;6.40;;;2.28;;
28774;SDS011;15926;51.348;6.596;2023-10-19T16:19:12;3.25;;;1.80;;
28774;SDS011;15926;51.348;6.596;2023-10-19T16:21:38;6.05;;;1.67;;
28774;SDS011;15926;51.348;6.596;2023-10-19T16:24:06;6.47;;;2.20;;
28774;SDS011;15926;51.348;6.596;2023-10-19T16:26:32;7.30;;;2.20;;
28774;SDS011;15926;51.348;6.596;2023-10-19T16:28:58;4.43;;;2.30;;
28774;SDS011;15926;51.348;6.596;2023-10-19T16:31:24;9.02;;;2.35;;
28774;SDS011;15926;51.348;6.596;2023-10-19T16:33:50;5.07;;;2.38;;
28774;SDS011;15926;51.348;6.596;2023-10-19T16:36:17;2.63;;;2.22;;
28774;SDS011;15926;51.348;6.596;2023-10-19T16:38:43;6.70;;;2.33;;
28774;SDS011;15926;51.348;6.596;2023-10-19T16:41:10;6.28;;;2.58;;
28774;SDS011;15926;51.348;6.596;2023-10-19T16:43:36;3.80;;;2.55;;
28774;SDS011;15926;51.348;6.596;2023-10-19T16:46:03;5.63;;;3.10;;
28774;SDS011;15926;51.348;6.596;2023-10-19T16:48:31;7.20;;;2.40;;
28774;SDS011;15926;51.348;6.596;2023-10-19T16:51:04;3.47;;;2.33;;
28774;SDS011;15926;51.348;6.596;2023-10-19T16:53:30;6.15;;;2.20;;
28774;SDS011;15926;51.348;6.596;2023-10-19T16:55:59;3.40;;;2.58;;
28774;SDS011;15926;51.348;6.596;2023-10-19T16:58:26;5.50;;;3.13;;
28774;SDS011;15926;51.348;6.596;2023-10-19T17:00:52;2.58;;;2.38;;
28774;SDS011;15926;51.348;6.596;2023-10-19T17:03:18;8.23;;;2.85;;
28774;SDS011;15926;51.348;6.596;2023-10-19T17:05:44;4.60;;;3.25;;
28774;SDS011;15926;51.348;6.596;2023-10-19T17:08:11;2.88;;;2.58;;
28774;SDS011;15926;51.348;6.596;2023-10-19T17:10:38;6.93;;;2.58;;
28774;SDS011;15926;51.348;6.596;2023-10-19T17:13:04;4.30;;;2.40;;
28774;SDS011;15926;51.348;6.596;2023-10-19T17:15:30;7.43;;;2.83;;
28774;SDS011;15926;51.348;6.596;2023-10-19T17:17:58;5.40;;;2.50;;
28774;SDS011;15926;51.348;6.596;2023-10-19T17:20:24;5.03;;;3.13;;
28774;SDS011;15926;51.348;6.596;2023-10-19T17:22:52;8.75;;;3.78;;
28774;SDS011;15926;51.348;6.596;2023-10-19T17:25:18;5.30;;;2.80;;
28774;SDS011;15926;51.348;6.596;2023-10-19T17:27:44;6.20;;;3.15;;
28774;SDS011;15926;51.348;6.596;2023-10-19T17:30:11;4.53;;;2.85;;
28774;SDS011;15926;51.348;6.596;2023-10-19T17:32:38;4.90;;;3.53;;
28774;SDS011;15926;51.348;6.596;2023-10-19T17:35:05;3.88;;;3.00;;
28774;SDS011;15926;51.348;6.596;2023-10-19T17:37:31;3.15;;;2.88;;
28774;SDS011;15926;51.348;6.596;2023-10-19T17:39:57;5.55;;;3.47;;
28774;SDS011;15926;51.348;6.596;2023-10-19T17:42:23;3.83;;;3.47;;
28774;SDS011;15926;51.348;6.596;2023-10-19T17:44:53;6.25;;;3.17;;
28774;SDS011;15926;51.348;6.596;2023-10-19T17:47:19;6.57;;;3.80;;
28774;SDS011;15926;51.348;6.596;2023-10-19T17:49:45;4.63;;;4.00;;
28774;SDS011;15926;51.348;6.596;2023-10-19T17:52:11;5.57;;;4.00;;
28774;SDS011;15926;51.348;6.596;2023-10-19T17:54:39;7.60;;;4.30;;
28774;SDS011;15926;51.348;6.596;2023-10-19T17:57:05;5.15;;;4.63;;
28774;SDS011;15926;51.348;6.596;2023-10-19T17:59:31;5.55;;;4.60;;
28774;SDS011;15926;51.348;6.596;2023-10-19T18:01:57;11.52;;;4.82;;
28774;SDS011;15926;51.348;6.596;2023-10-19T18:04:24;13.88;;;5.05;;
28774;SDS011;15926;51.348;6.596;2023-10-19T18:06:50;8.95;;;4.72;;
28774;SDS011;15926;51.348;6.596;2023-10-19T18:09:16;7.47;;;4.47;;
28774;SDS011;15926;51.348;6.596;2023-10-19T18:11:43;6.90;;;4.60;;
28774;SDS011;15926;51.348;6.596;2023-10-19T18:14:09;7.43;;;5.00;;
28774;SDS011;15926;51.348;6.596;2023-10-19T18:16:36;7.75;;;5.00;;
28774;SDS011;15926;51.348;6.596;2023-10-19T18:19:02;7.95;;;5.30;;
28774;SDS011;15926;51.348;6.596;2023-10-19T18:21:28;10.18;;;5.40;;
28774;SDS011;15926;51.348;6.596;2023-10-19T18:23:56;7.80;;;5.47;;
28774;SDS011;15926;51.348;6.596;2023-10-19T18:26:23;9.43;;;6.10;;
28774;SDS011;15926;51.348;6.596;2023-10-19T18:28:50;6.32;;;5.55;;
28774;SDS011;15926;51.348;6.596;2023-10-19T18:31:16;7.97;;;5.95;;
28774;SDS011;15926;51.348;6.596;2023-10-19T18:33:42;8.40;;;5.43;;
28774;SDS011;15926;51.348;6.596;2023-10-19T18:36:08;11.00;;;5.63;;
28774;SDS011;15926;51.348;6.596;2023-10-19T18:38:35;7.32;;;5.20;;
28774;SDS011;15926;51.348;6.596;2023-10-19T18:41:02;6.40;;;5.43;;
28774;SDS011;15926;51.348;6.596;2023-10-19T18:43:31;8.85;;;6.00;;
28774;SDS011;15926;51.348;6.596;2023-10-19T18:45:57;6.28;;;5.68;;
28774;SDS011;15926;51.348;6.596;2023-10-19T18:48:23;7.75;;;5.95;;
28774;SDS011;15926;51.348;6.596;2023-10-19T18:50:59;10.77;;;6.18;;
28774;SDS011;15926;51.348;6.596;2023-10-19T18:53:26;7.57;;;5.50;;
28774;SDS011;15926;51.348;6.596;2023-10-19T18:55:53;8.18;;;6.47;;
28774;SDS011;15926;51.348;6.596;2023-10-19T18:58:20;7.72;;;6.20;;